Terminal Aerodrome Forecast
Issued by NWS

Home | Current Version | Previous Version | Text Only | Print | Product List | Glossary On
Versions: 1 2 3 4 5 6 7 8 9 10 11 12 13 14 15 16 17 18 19 20 21
000
FTUS42 KJAX 220700 AAA
TAFVQQ
TAF AMD
KVQQ 220727Z 2207/2306 00000KT 4SM BR SCT250
     FM221300 26003KT P6SM SCT250
     FM221900 15006KT P6SM FEW100 BKN250
     FM230400 20002KT P6SM VCTS SCT035CB OVC250=

USA.gov is the U.S. government's official web portal to all federal, state and local government web resources and services.